Time;durP1;ratioP1;P1;durP2;ratioP2;P2;SDS_P1;SDS_P2;PMS_P1;PMS_P2;Temp;Humidity;BMP_temperature;BMP_pressure;BME280_temperature;BME280_humidity;BME280_pressure;Samples;Min_cycle;Max_cycle;Signal;HPM_P1;HPM_P2
2021/11/09 00:01:45;;;;;;;1.85;0.70;;;;;;;5.94;70.86;98433.41;5003325;28;20034;-60
2021/11/09 00:04:40;;;;;;;0.57;0.57;;;;;;;5.85;71.40;98425.94;4990529;28;20080;-60
2021/11/09 00:07:37;;;;;;;0.75;0.63;;;;;;;5.70;71.55;98427.09;4999109;28;20022;-61
2021/11/09 00:10:28;;;;;;;0.55;0.55;;;;;;;5.32;72.20;98387.72;5003849;28;20072;-60
2021/11/09 00:13:15;;;;;;;0.65;0.63;;;;;;;5.68;72.31;98423.75;5003797;28;20026;-61
2021/11/09 00:16:01;;;;;;;0.57;0.55;;;;;;;5.70;72.78;98424.53;4997839;28;20109;-60
2021/11/09 00:18:48;;;;;;;0.50;0.50;;;;;;;5.79;72.58;98429.50;4994792;28;20041;-60
2021/11/09 00:21:34;;;;;;;0.70;0.52;;;;;;;5.65;73.14;98452.91;5003694;28;20027;-60
2021/11/09 00:24:20;;;;;;;0.60;0.60;;;;;;;5.77;73.06;98450.94;5002988;28;20081;-60
2021/11/09 00:27:07;;;;;;;1.65;0.80;;;;;;;5.85;72.59;98446.50;4998454;28;20205;-60
2021/11/09 00:29:53;;;;;;;0.60;0.60;;;;;;;5.72;73.03;98452.78;5002832;28;20317;-60
2021/11/09 00:32:43;;;;;;;2.50;0.80;;;;;;;5.83;73.10;98455.97;4997647;28;20034;-59
2021/11/09 00:35:30;;;;;;;2.05;0.70;;;;;;;5.70;74.22;98450.22;5003926;28;20022;-59
2021/11/09 00:38:17;;;;;;;1.48;0.80;;;;;;;5.74;75.01;98448.44;5002546;28;20026;-59
2021/11/09 00:41:04;;;;;;;0.73;0.60;;;;;;;5.79;74.78;98451.78;5000835;28;20023;-59
2021/11/09 00:43:50;;;;;;;0.70;0.70;;;;;;;5.86;74.47;98458.47;5002821;28;20046;-60
2021/11/09 00:46:36;;;;;;;0.88;0.88;;;;;;;5.84;74.81;98455.06;5002543;28;20026;-60
2021/11/09 00:49:22;;;;;;;1.00;0.73;;;;;;;5.65;76.06;98459.78;5003425;28;20029;-60
2021/11/09 00:52:11;;;;;;;1.35;1.25;;;;;;;5.73;75.88;98464.72;5007446;28;20049;-60
2021/11/09 00:54:59;;;;;;;1.52;0.85;;;;;;;5.62;75.65;98463.25;5002026;28;20026;-60
2021/11/09 00:57:46;;;;;;;0.60;0.60;;;;;;;5.79;75.85;98477.47;5002633;28;20034;-59
2021/11/09 01:00:33;;;;;;;0.95;0.70;;;;;;;5.62;76.85;98493.22;5000089;28;20097;-59
2021/11/09 01:03:20;;;;;;;0.95;0.90;;;;;;;5.63;76.95;98484.63;5001896;28;20256;-59
2021/11/09 01:06:06;;;;;;;1.15;1.05;;;;;;;5.72;76.90;98481.88;5003891;28;20451;-59
2021/11/09 01:08:53;;;;;;;1.13;1.02;;;;;;;5.65;77.82;98483.72;5002415;28;20049;-58
2021/11/09 01:11:39;;;;;;;2.67;1.00;;;;;;;5.60;77.60;98489.84;5002668;28;20027;-59
2021/11/09 01:14:26;;;;;;;1.30;1.20;;;;;;;5.62;77.70;98488.09;5002781;28;20224;-59
2021/11/09 01:17:12;;;;;;;1.63;1.20;;;;;;;5.62;77.96;98498.38;5002768;28;20049;-59
2021/11/09 01:19:58;;;;;;;1.10;0.90;;;;;;;5.49;78.52;98498.59;4989829;28;20271;-59
2021/11/09 01:22:46;;;;;;;2.83;1.05;;;;;;;5.60;78.48;98494.97;5002414;28;20018;-60
2021/11/09 01:25:32;;;;;;;1.40;0.82;;;;;;;5.59;78.95;98496.69;5001873;28;20041;-59
2021/11/09 01:28:19;;;;;;;0.95;0.90;;;;;;;5.56;78.16;98507.03;5000491;28;20062;-60
2021/11/09 01:31:07;;;;;;;0.75;0.73;;;;;;;5.37;78.96;98519.38;4994876;28;20085;-59
2021/11/09 01:33:53;;;;;;;0.80;0.80;;;;;;;5.48;79.31;98526.88;5001152;28;20357;-59
2021/11/09 01:36:39;;;;;;;0.77;0.77;;;;;;;5.45;78.92;98532.09;5001929;28;20064;-59
2021/11/09 01:39:25;;;;;;;2.28;0.90;;;;;;;5.42;79.33;98532.16;5000817;28;20216;-59
2021/11/09 01:42:11;;;;;;;1.20;1.05;;;;;;;5.39;79.49;98540.75;5000824;28;20030;-59
2021/11/09 01:44:58;;;;;;;2.67;1.60;;;;;;;5.18;79.44;98549.69;5003205;28;20034;-59
2021/11/09 01:47:45;;;;;;;4.07;1.90;;;;;;;5.11;80.18;98560.94;5000755;28;20203;-59
2021/11/09 01:50:35;;;;;;;2.10;1.35;;;;;;;4.84;79.86;98512.66;5001856;28;20102;-59
2021/11/09 01:53:22;;;;;;;1.33;1.20;;;;;;;5.12;79.40;98571.16;5004309;28;20054;-59
2021/11/09 01:56:15;;;;;;;2.97;1.08;;;;;;;4.74;79.83;98517.97;5000831;28;20085;-59
2021/11/09 01:59:06;;;;;;;1.10;0.80;;;;;;;4.92;79.92;98588.63;5001476;28;20065;-59
2021/11/09 02:01:52;;;;;;;0.73;0.50;;;;;;;4.85;79.67;98598.16;5001959;28;20034;-59
2021/11/09 02:04:38;;;;;;;0.40;0.40;;;;;;;4.81;79.25;98605.03;5002455;28;20035;-59
2021/11/09 02:07:24;;;;;;;0.40;0.40;;;;;;;4.76;78.71;98605.97;5001480;28;20026;-60
2021/11/09 02:10:10;;;;;;;0.50;0.40;;;;;;;4.63;78.86;98613.88;5002279;28;20038;-62
2021/11/09 02:12:57;;;;;;;0.65;0.40;;;;;;;4.67;78.50;98617.22;5007109;28;20038;-59
2021/11/09 02:15:44;;;;;;;0.82;0.50;;;;;;;4.55;78.80;98631.06;4998423;28;20037;-59
2021/11/09 02:18:30;;;;;;;1.05;0.50;;;;;;;4.27;79.51;98631.44;5001044;28;20316;-58
2021/11/09 02:21:16;;;;;;;0.60;0.43;;;;;;;4.26;79.35;98631.44;5002362;28;20038;-58
2021/11/09 02:24:02;;;;;;;1.23;0.50;;;;;;;4.17;79.74;98645.25;5001309;28;20061;-59
2021/11/09 02:26:54;;;;;;;0.47;0.40;;;;;;;3.97;80.27;98648.88;5001087;28;20034;-59
2021/11/09 02:29:41;;;;;;;0.40;0.40;;;;;;;4.12;79.75;98662.41;4999979;28;20042;-58
2021/11/09 02:32:31;;;;;;;1.35;0.68;;;;;;;4.04;80.25;98674.44;5016360;28;20250;-59
2021/11/09 02:35:18;;;;;;;0.40;0.40;;;;;;;4.00;80.19;98683.88;5002963;28;20050;-59
2021/11/09 02:38:05;;;;;;;1.60;0.70;;;;;;;4.00;80.49;98683.88;5001200;28;20243;-58
2021/11/09 02:40:51;;;;;;;5.45;2.55;;;;;;;4.00;80.81;98695.84;5002155;28;20060;-59
2021/11/09 02:43:38;;;;;;;3.55;1.85;;;;;;;3.93;80.42;98697.59;4994978;28;20380;-58
2021/11/09 02:46:34;;;;;;;2.65;1.50;;;;;;;3.82;80.96;98705.41;5001470;28;20327;-58
2021/11/09 02:52:08;;;;;;;0.50;0.50;;;;;;;3.71;81.30;98713.19;5000896;28;20040;-58
2021/11/09 02:55:01;;;;;;;1.02;0.93;;;;;;;3.73;81.49;98715.72;4999894;28;20139;-58
2021/11/09 02:58:43;;;;;;;0.50;0.50;;;;;;;3.70;81.83;98729.41;5001647;28;20076;-57
2021/11/09 03:06:46;;;;;;;1.67;0.57;;;;;;;3.90;81.79;98747.13;5001941;28;20022;-58
2021/11/09 03:12:21;;;;;;;0.82;0.45;;;;;;;3.87;80.54;98756.59;4990082;28;20035;-58
2021/11/09 03:15:11;;;;;;;0.85;0.70;;;;;;;3.95;81.08;98767.63;4998683;28;20256;-58
2021/11/09 03:45:11;;;;;;;0.73;0.50;;;;;;;3.55;81.19;98848.16;5008939;28;20323;-58
2021/11/09 03:48:09;;;;;;;;;;;;;;;3.80;81.77;98855.66;5003037;28;20038;-59
2021/11/09 03:50:59;;;;;;;2.08;0.60;;;;;;;3.60;81.80;98866.03;5004079;28;19914;-58
2021/11/09 03:53:45;;;;;;;0.68;0.65;;;;;;;3.59;82.03;98872.88;5003746;28;20038;-60
2021/11/09 04:00:06;;;;;;;0.63;0.57;;;;;;;3.63;81.23;98881.38;5004659;28;20055;-60
2021/11/09 04:03:02;;;;;;;0.65;0.50;;;;;;;3.62;82.17;98895.91;5004736;28;20030;-60
2021/11/09 04:05:52;;;;;;;0.73;0.40;;;;;;;3.65;81.39;98914.66;5003092;28;20052;-59
2021/11/09 04:09:28;;;;;;;0.50;0.50;;;;;;;3.33;81.91;98910.56;5002539;28;20041;-60
2021/11/09 04:12:02;;;;;;;0.50;0.43;;;;;;;3.24;81.40;98911.47;5002270;28;20354;-60
2021/11/09 04:14:59;;;;;;;0.60;0.60;;;;;;;3.27;81.40;98921.69;5003992;28;20030;-59
2021/11/09 04:26:59;;;;;;;1.70;0.63;;;;;;;3.19;80.36;98957.53;4991968;28;20093;-57
2021/11/09 04:53:53;;;;;;;0.60;0.60;;;;;;;2.67;80.93;99031.78;5008945;28;20062;-60
2021/11/09 05:02:53;;;;;;;1.13;0.60;;;;;;;2.92;82.22;99053.06;4994161;28;20045;-59
2021/11/09 05:09:07;;;;;;;0.88;0.88;;;;;;;2.99;82.34;99076.94;5000331;28;20104;-59
2021/11/09 05:11:53;;;;;;;1.50;0.95;;;;;;;3.08;82.31;99079.50;5009983;28;20026;-59
2021/11/09 05:14:39;;;;;;;1.20;1.10;;;;;;;2.98;81.16;99088.00;5003402;28;20053;-58
2021/11/09 05:17:26;;;;;;;2.45;1.30;;;;;;;3.08;82.19;99090.56;4988314;28;20038;-60
2021/11/09 05:20:12;;;;;;;1.40;1.30;;;;;;;2.88;82.31;99100.81;5001293;28;20046;-58
2021/11/09 05:22:58;;;;;;;2.67;2.47;;;;;;;2.50;82.02;99070.13;5002530;28;20214;-59
2021/11/09 05:25:45;;;;;;;2.03;1.83;;;;;;;2.81;82.33;99116.13;5000279;28;20049;-59
2021/11/09 05:28:30;;;;;;;1.80;1.70;;;;;;;2.93;82.13;99150.25;4986629;28;20378;-59
2021/11/09 05:31:18;;;;;;;2.83;2.13;;;;;;;2.89;81.51;99148.56;5002385;28;20034;-59
2021/11/09 05:34:04;;;;;;;2.97;1.90;;;;;;;2.93;81.43;99155.34;5001990;28;20038;-59
2021/11/09 05:36:50;;;;;;;2.35;1.95;;;;;;;2.97;80.87;99161.34;5002143;28;20215;-59
2021/11/09 05:39:54;;;;;;;2.40;2.03;;;;;;;2.90;80.81;99170.69;5003050;28;20079;-59
2021/11/09 05:42:41;;;;;;;4.28;2.65;;;;;;;2.85;81.08;99169.84;5001702;28;20022;-59
2021/11/09 05:45:28;;;;;;;4.70;3.30;;;;;;;2.81;81.67;99186.03;5000661;28;20030;-59
2021/11/09 05:48:17;;;;;;;4.70;3.85;;;;;;;2.85;81.68;99195.44;5012510;28;20069;-59
2021/11/09 05:51:07;;;;;;;5.88;4.50;;;;;;;2.77;81.79;99199.66;5000345;28;20026;-60
2021/11/09 05:53:53;;;;;;;5.40;4.22;;;;;;;2.85;81.17;99215.88;5005797;28;20038;-59
2021/11/09 05:56:39;;;;;;;5.05;4.55;;;;;;;2.84;80.28;99228.66;5000982;28;20034;-58
2021/11/09 05:59:25;;;;;;;7.97;4.53;;;;;;;2.71;80.87;99226.06;5001878;28;20234;-59
2021/11/09 06:02:12;;;;;;;5.85;4.20;;;;;;;2.50;79.69;99231.13;5001608;28;20037;-59
2021/11/09 06:04:58;;;;;;;5.03;4.10;;;;;;;2.62;78.80;99251.59;5000509;28;20370;-58
2021/11/09 06:07:44;;;;;;;7.00;4.15;;;;;;;2.64;78.87;99257.59;4999863;28;20101;-58
2021/11/09 06:10:30;;;;;;;7.40;4.20;;;;;;;2.67;78.77;99259.31;5003699;28;20029;-59
2021/11/09 06:13:16;;;;;;;5.53;3.80;;;;;;;2.51;78.61;99253.25;5001318;28;20030;-59
2021/11/09 06:16:02;;;;;;;4.53;3.60;;;;;;;2.64;78.00;99272.06;5000242;28;20341;-59
2021/11/09 06:18:48;;;;;;;5.40;4.15;;;;;;;2.63;77.75;99270.34;5001628;28;20073;-60
2021/11/09 06:21:34;;;;;;;4.00;3.60;;;;;;;2.72;77.33;99295.94;5001826;28;20085;-59
2021/11/09 06:24:22;;;;;;;4.45;3.33;;;;;;;2.45;77.17;99302.63;5001157;28;20097;-59
2021/11/09 06:27:08;;;;;;;4.60;3.63;;;;;;;2.24;75.99;99306.78;5001394;28;20065;-59
2021/11/09 06:29:54;;;;;;;4.15;3.28;;;;;;;2.55;76.96;99313.75;5026367;28;20030;-59
2021/11/09 06:32:40;;;;;;;4.32;3.60;;;;;;;2.35;76.18;99316.22;5001212;28;20339;-60
2021/11/09 06:35:27;;;;;;;4.03;3.55;;;;;;;2.44;76.92;99325.63;5001119;28;20034;-59
2021/11/09 06:38:12;;;;;;;5.88;3.70;;;;;;;2.39;76.33;99341.81;5000056;28;20276;-59
2021/11/09 06:40:59;;;;;;;4.78;3.55;;;;;;;2.31;76.65;99335.78;5001273;28;20026;-60
2021/11/09 06:43:45;;;;;;;5.40;3.58;;;;;;;2.36;76.02;99353.69;5002485;28;20089;-60
2021/11/09 06:46:31;;;;;;;7.22;3.35;;;;;;;2.30;75.76;99353.69;5002507;28;20022;-60
2021/11/09 06:49:17;;;;;;;6.05;3.33;;;;;;;2.36;76.44;99363.91;4984621;28;20030;-60
2021/11/09 06:52:03;;;;;;;3.95;3.28;;;;;;;2.17;76.70;99374.00;5002413;28;20033;-59
2021/11/09 06:54:49;;;;;;;5.90;3.38;;;;;;;2.15;76.90;99370.59;5006508;28;20049;-59
2021/11/09 06:57:35;;;;;;;3.30;3.00;;;;;;;2.10;77.32;99369.69;4990711;28;20034;-61
2021/11/09 07:00:23;;;;;;;6.50;3.28;;;;;;;2.09;77.01;99388.41;4989816;28;20027;-61
2021/11/09 07:03:09;;;;;;;4.18;3.10;;;;;;;2.03;76.62;99396.88;4991345;28;20179;-60
2021/11/09 07:05:55;;;;;;;3.08;2.78;;;;;;;2.08;75.52;99407.13;5003004;28;20061;-60
2021/11/09 07:08:41;;;;;;;3.45;2.42;;;;;;;2.10;75.76;99408.00;5004692;28;20104;-60
2021/11/09 07:11:27;;;;;;;4.38;2.30;;;;;;;1.89;74.57;99424.84;5003619;28;20031;-60
2021/11/09 07:14:14;;;;;;;4.13;2.10;;;;;;;1.80;74.31;99445.19;5013628;28;20080;-61
2021/11/09 07:17:00;;;;;;;4.65;2.33;;;;;;;1.86;74.25;99450.34;4999320;28;20388;-60
2021/11/09 07:19:50;;;;;;;3.83;2.03;;;;;;;2.05;74.02;99445.41;4990647;28;20053;-59
2021/11/09 07:22:37;;;;;;;2.58;2.13;;;;;;;1.99;74.20;99463.25;5004499;28;20030;-63
2021/11/09 07:25:23;;;;;;;3.00;2.10;;;;;;;1.78;74.35;99482.63;5004656;28;20030;-59
2021/11/09 07:28:09;;;;;;;4.75;2.10;;;;;;;1.78;74.59;99489.41;5003247;28;20038;-59
2021/11/09 07:31:04;;;;;;;2.83;1.80;;;;;;;1.66;73.36;99495.25;5003366;28;20046;-61
2021/11/09 07:33:51;;;;;;;2.53;1.67;;;;;;;1.62;71.50;99498.59;5004159;28;20346;-59
2021/11/09 07:36:37;;;;;;;2.75;1.48;;;;;;;1.79;72.96;99509.00;5004862;28;20069;-58
2021/11/09 07:39:25;;;;;;;2.60;1.70;;;;;;;1.80;72.65;99516.69;5003775;28;20030;-59
2021/11/09 07:42:11;;;;;;;1.83;1.73;;;;;;;1.89;71.89;99526.13;5003867;28;20034;-60
2021/11/09 07:44:56;;;;;;;2.72;1.90;;;;;;;1.97;72.36;99533.91;4984234;28;20033;-60
2021/11/09 07:47:43;;;;;;;3.75;2.05;;;;;;;1.82;72.55;99545.63;4998997;28;20138;-60
2021/11/09 07:50:29;;;;;;;4.22;2.20;;;;;;;1.93;74.05;99560.22;5003212;28;20085;-60
2021/11/09 07:53:17;;;;;;;2.08;1.70;;;;;;;1.74;72.59;99565.13;5003289;28;20382;-61
2021/11/09 08:02:05;;;;;;;3.10;1.48;;;;;;;1.69;70.47;99590.56;4993683;28;20046;-60
2021/11/09 08:05:00;;;;;;;5.07;1.50;;;;;;;1.54;70.53;99609.09;5005714;28;20331;-60
2021/11/09 08:07:52;;;;;;;2.00;1.52;;;;;;;1.62;70.30;99616.84;4991318;28;20038;-61
2021/11/09 08:10:38;;;;;;;6.38;2.97;;;;;;;1.48;70.05;99615.81;5001785;28;20198;-61
2021/11/09 08:13:25;;;;;;;2.63;1.42;;;;;;;1.62;70.20;99632.16;5005674;28;20034;-61
2021/11/09 08:16:11;;;;;;;3.55;1.63;;;;;;;1.63;70.54;99628.78;5001513;28;20346;-60
2021/11/09 08:18:57;;;;;;;2.42;1.50;;;;;;;1.58;70.20;99655.91;5024392;28;20102;-61
2021/11/09 08:21:44;;;;;;;2.20;1.65;;;;;;;1.62;69.35;99649.19;5000953;28;20215;-64
2021/11/09 08:24:30;;;;;;;3.10;1.63;;;;;;;1.58;69.00;99648.25;4995100;28;20023;-61
2021/11/09 08:27:16;;;;;;;2.35;1.58;;;;;;;1.63;69.38;99661.13;5002686;28;20077;-60
2021/11/09 08:30:03;;;;;;;1.35;1.15;;;;;;;1.72;69.91;99664.66;4997177;28;20026;-60
2021/11/09 08:32:49;;;;;;;2.08;1.38;;;;;;;1.51;70.13;99689.84;5002227;28;20066;-60
2021/11/09 08:35:36;;;;;;;4.43;1.70;;;;;;;1.45;69.34;99682.94;5002437;28;20022;-61
2021/11/09 08:38:22;;;;;;;2.38;1.27;;;;;;;1.47;69.64;99681.31;5002313;28;20286;-61
2021/11/09 08:41:12;;;;;;;2.83;1.58;;;;;;;1.46;69.20;99702.53;5002330;28;20076;-61
2021/11/09 08:44:06;;;;;;;2.88;1.48;;;;;;;1.50;68.83;99700.91;5002155;28;20026;-61
2021/11/09 08:46:58;;;;;;;2.67;1.88;;;;;;;1.59;67.74;99710.41;5002725;28;20089;-60
2021/11/09 08:49:45;;;;;;;3.65;1.42;;;;;;;1.38;67.90;99716.88;5002216;28;20026;-61
2021/11/09 08:52:33;;;;;;;3.35;1.60;;;;;;;1.47;68.40;99723.81;5010853;28;20382;-60
2021/11/09 09:04:11;;;;;;;1.88;1.20;;;;;;;1.24;68.20;99737.06;5003227;28;20034;-59
2021/11/09 09:04:38;;;;;;;2.47;1.60;;;;;;;1.51;67.91;99748.53;4988770;28;20030;-59
2021/11/09 09:07:29;;;;;;;2.03;1.17;;;;;;;1.64;67.11;99763.22;4988706;28;20027;-60
2021/11/09 09:10:15;;;;;;;2.57;1.20;;;;;;;1.46;67.86;99756.13;5002273;28;20040;-59
2021/11/09 09:13:01;;;;;;;2.28;1.25;;;;;;;1.66;67.23;99760.69;5002399;28;20046;-60
2021/11/09 09:15:47;;;;;;;1.77;1.30;;;;;;;1.57;67.16;99769.06;5003139;28;20090;-59
2021/11/09 09:18:33;;;;;;;3.28;1.48;;;;;;;1.35;66.14;99753.41;5002937;28;20034;-59
2021/11/09 09:21:36;;;;;;;2.40;1.52;;;;;;;1.52;65.80;99778.34;5001126;28;20365;-60
2021/11/09 09:58:02;;;;;;;2.50;1.42;;;;;;;1.94;63.11;99814.75;5000058;28;20426;-59
2021/11/09 10:00:48;;;;;;;2.33;1.38;;;;;;;1.65;62.82;99804.91;5002106;28;20322;-59
2021/11/09 10:03:39;;;;;;;4.93;1.70;;;;;;;1.79;63.29;99828.13;4998225;28;20050;-59
2021/11/09 10:06:44;;;;;;;4.63;1.20;;;;;;;1.87;62.57;99837.63;5002288;28;20030;-59
2021/11/09 10:09:39;;;;;;;3.15;1.20;;;;;;;1.67;63.17;99839.00;5002959;28;20057;-59
2021/11/09 10:12:33;;;;;;;2.03;1.30;;;;;;;1.32;63.16;99788.19;4999895;28;20087;-59
2021/11/09 10:15:21;;;;;;;3.33;1.58;;;;;;;1.23;63.54;99788.03;5002105;28;20045;-59
2021/11/09 10:18:13;;;;;;;3.22;1.20;;;;;;;1.60;63.06;99865.25;4992146;28;20038;-60
2021/11/09 10:21:04;;;;;;;2.05;1.40;;;;;;;1.90;62.73;99870.88;5000854;28;20092;-60
2021/11/09 10:23:50;;;;;;;3.70;1.52;;;;;;;1.97;63.16;99874.41;4994696;28;20038;-59
2021/11/09 10:26:36;;;;;;;2.97;1.48;;;;;;;1.84;62.73;99888.66;4993046;28;20271;-58
2021/11/09 10:29:43;;;;;;;3.67;1.20;;;;;;;1.93;61.97;99903.28;5000808;28;20022;-59
2021/11/09 10:32:30;;;;;;;2.65;1.50;;;;;;;1.88;62.43;99897.22;4999468;28;20109;-59
2021/11/09 10:35:18;;;;;;;3.28;1.30;;;;;;;1.74;63.47;99886.78;5000647;28;20033;-60
2021/11/09 10:38:04;;;;;;;3.05;1.30;;;;;;;1.68;62.37;99901.97;5002016;28;20042;-58
2021/11/09 10:40:51;;;;;;;2.85;1.30;;;;;;;1.44;60.97;99921.13;5000132;28;20331;-59
2021/11/09 10:43:37;;;;;;;4.68;1.30;;;;;;;1.66;61.16;99927.47;5000983;28;20097;-59
2021/11/09 10:46:29;;;;;;;5.00;1.65;;;;;;;1.70;61.73;99926.69;4991805;28;20034;-59
2021/11/09 10:49:15;;;;;;;5.18;1.75;;;;;;;1.77;61.51;99939.56;4999717;28;20026;-59
2021/11/09 10:52:02;;;;;;;3.83;1.67;;;;;;;1.87;61.07;99939.78;5005240;28;20034;-59
2021/11/09 10:54:52;;;;;;;3.75;1.40;;;;;;;1.72;60.51;99940.38;4999774;28;20038;-59
2021/11/09 10:57:53;;;;;;;4.28;1.30;;;;;;;1.50;60.72;99951.84;5001056;28;20038;-59
2021/11/09 11:06:38;;;;;;;3.45;1.80;;;;;;;1.76;60.04;99974.47;5002106;28;20022;-59
2021/11/09 11:09:25;;;;;;;5.30;1.60;;;;;;;1.78;60.70;99977.03;5000760;28;20030;-59
2021/11/09 11:12:14;;;;;;;2.85;1.20;;;;;;;1.41;59.94;99923.63;4999254;28;20034;-60
2021/11/09 11:15:10;;;;;;;4.45;1.38;;;;;;;1.41;59.29;100002.72;5001533;28;20023;-60
2021/11/09 11:17:56;;;;;;;1.77;1.13;;;;;;;1.33;59.29;99999.97;4995106;28;20398;-60
2021/11/09 11:20:44;;;;;;;3.72;1.20;;;;;;;1.40;60.30;99984.78;5000823;28;20061;-58
2021/11/09 11:23:31;;;;;;;3.72;1.58;;;;;;;1.57;60.02;100014.09;5001018;28;20030;-60
2021/11/09 11:26:18;;;;;;;2.80;1.20;;;;;;;1.34;59.33;100017.03;4999658;28;20215;-60
2021/11/09 11:29:06;;;;;;;2.25;1.27;;;;;;;1.26;59.62;100027.91;5000644;28;20030;-59
2021/11/09 11:31:53;;;;;;;4.47;1.50;;;;;;;1.32;59.69;100028.88;4994008;28;20280;-59
2021/11/09 11:34:40;;;;;;;2.97;1.33;;;;;;;1.13;60.19;100016.56;4998829;28;20100;-59
2021/11/09 11:37:26;;;;;;;6.05;1.70;;;;;;;1.26;59.87;100045.75;4994469;28;20026;-60
2021/11/09 11:40:12;;;;;;;2.85;1.10;;;;;;;1.11;59.41;100041.16;5000651;28;20049;-61
2021/11/09 11:42:58;;;;;;;8.40;1.73;;;;;;;1.19;60.74;100055.81;5000600;28;20034;-60
2021/11/09 11:45:48;;;;;;;3.92;1.85;;;;;;;0.85;59.36;99998.94;4998867;28;20077;-60
2021/11/09 11:49:08;;;;;;;6.47;1.45;;;;;;;1.22;60.11;100067.75;5003718;28;20037;-61
2021/11/09 11:51:54;;;;;;;5.72;1.42;;;;;;;1.30;59.98;100067.97;4975604;28;20405;-60
2021/11/09 11:54:52;;;;;;;2.90;1.15;;;;;;;1.47;60.23;100084.50;5001996;28;20022;-60
2021/11/09 11:57:42;;;;;;;2.83;1.70;;;;;;;1.11;59.32;100034.38;5002439;28;20388;-60
2021/11/09 12:00:34;;;;;;;3.67;1.55;;;;;;;1.43;60.66;100100.56;5004053;28;20339;-60
2021/11/09 12:03:23;;;;;;;6.35;1.65;;;;;;;1.46;60.06;100105.72;5003971;28;20031;-60
2021/11/09 12:06:23;;;;;;;4.80;1.50;;;;;;;1.15;59.69;100094.81;5002226;28;20041;-60
2021/11/09 12:09:28;;;;;;;3.03;1.70;;;;;;;1.41;60.53;100140.50;5003844;28;20034;-60
2021/11/09 12:12:17;;;;;;;3.65;1.63;;;;;;;1.50;59.80;100125.38;5001712;28;20053;-60
2021/11/09 12:15:06;;;;;;;5.07;1.85;;;;;;;1.15;59.22;100068.47;5003356;28;20038;-61
2021/11/09 12:17:52;;;;;;;3.63;1.58;;;;;;;1.45;59.81;100129.50;5001264;28;20022;-60
2021/11/09 12:20:42;;;;;;;5.00;1.50;;;;;;;1.33;60.56;100142.88;5003847;28;20062;-61
2021/11/09 12:23:30;;;;;;;2.95;1.00;;;;;;;1.23;58.82;100155.34;5002437;28;20026;-61
2021/11/09 12:26:44;;;;;;;2.53;1.10;;;;;;;1.06;59.05;100173.66;5003025;28;20052;-61
2021/11/09 12:29:35;;;;;;;3.17;1.33;;;;;;;1.24;58.65;100177.50;4990405;28;20284;-60
2021/11/09 12:32:42;;;;;;;3.50;1.95;;;;;;;1.07;60.00;100144.81;5001652;28;20037;-61
2021/11/09 12:35:29;;;;;;;3.40;1.40;;;;;;;1.36;61.15;100181.19;5000159;28;20066;-61
2021/11/09 12:38:21;;;;;;;4.03;1.65;;;;;;;1.41;60.20;100185.56;5026930;28;20035;-60
2021/11/09 12:41:29;;;;;;;2.85;1.58;;;;;;;1.26;59.38;100196.25;5002349;28;20382;-61
2021/11/09 12:44:15;;;;;;;5.30;1.65;;;;;;;1.20;60.91;100197.84;5003071;28;20430;-60
2021/11/09 12:47:08;;;;;;;3.10;1.40;;;;;;;1.24;61.80;100203.00;5002742;28;20296;-60
2021/11/09 12:49:55;;;;;;;3.15;1.70;;;;;;;1.19;61.32;100213.94;4998517;28;20023;-59
2021/11/09 12:52:40;;;;;;;3.58;1.27;;;;;;;0.92;59.53;100220.91;5012020;28;20057;-59
2021/11/09 12:55:27;;;;;;;2.83;1.45;;;;;;;0.95;60.18;100226.09;5008106;28;20026;-60
2021/11/09 12:58:19;;;;;;;4.30;1.80;;;;;;;1.07;60.19;100243.38;5001779;28;20041;-60
2021/11/09 13:01:20;;;;;;;3.03;1.27;;;;;;;1.13;60.35;100231.66;5001530;28;20026;-60
2021/11/09 13:10:06;;;;;;;4.45;1.75;;;;;;;1.15;61.38;100250.41;4986141;28;20035;-62
2021/11/09 13:12:54;;;;;;;6.03;1.77;;;;;;;1.05;61.88;100250.16;4986617;28;20061;-61
2021/11/09 13:15:40;;;;;;;5.90;2.25;;;;;;;1.09;61.55;100252.81;4986004;28;20202;-61
2021/11/09 13:18:31;;;;;;;4.07;2.03;;;;;;;1.08;62.32;100247.66;5003001;28;20040;-61
2021/11/09 13:21:25;;;;;;;7.60;2.33;;;;;;;1.20;61.89;100263.31;4998839;28;20033;-60
2021/11/09 13:24:18;;;;;;;6.10;2.97;;;;;;;1.20;61.90;100264.16;5000958;28;20023;-61
2021/11/09 13:27:07;;;;;;;8.57;1.85;;;;;;;1.18;63.26;100280.25;5001774;28;20049;-62
2021/11/09 13:29:53;;;;;;;2.78;1.60;;;;;;;1.19;62.46;100280.28;4990427;28;20224;-61
2021/11/09 13:32:39;;;;;;;4.35;1.75;;;;;;;1.07;62.31;100282.53;4993801;28;20045;-60
2021/11/09 13:35:33;;;;;;;4.05;1.73;;;;;;;1.20;62.76;100299.88;5002741;28;20042;-60
2021/11/09 13:38:22;;;;;;;4.25;1.88;;;;;;;0.81;62.94;100223.16;4996675;28;20038;-61
2021/11/09 13:41:16;;;;;;;4.72;1.60;;;;;;;0.88;62.64;100230.16;5002200;28;20311;-60
2021/11/09 13:44:08;;;;;;;8.68;2.42;;;;;;;1.24;63.16;100326.34;5002249;28;20097;-60
2021/11/09 13:46:54;;;;;;;9.65;1.83;;;;;;;1.20;63.09;100312.63;4997987;28;20259;-60
2021/11/09 13:49:40;;;;;;;3.58;1.77;;;;;;;1.18;62.39;100316.84;4996485;28;20031;-61
2021/11/09 13:52:26;;;;;;;4.43;2.03;;;;;;;1.05;64.39;100337.72;5003628;28;20057;-61
2021/11/09 13:55:14;;;;;;;4.00;1.67;;;;;;;1.07;63.18;100346.28;4999083;28;20065;-61
2021/11/09 13:58:00;;;;;;;7.07;2.60;;;;;;;0.87;62.97;100325.31;4999577;28;20060;-59
2021/11/09 14:00:49;;;;;;;4.63;1.83;;;;;;;0.98;63.46;100338.34;5000265;28;20049;-61
2021/11/09 14:07:05;;;;;;;5.60;1.65;;;;;;;0.84;62.46;100343.94;4990065;28;20354;-60
2021/11/09 14:12:55;;;;;;;3.05;1.15;;;;;;;0.93;63.31;100380.72;5025016;28;20046;-61
2021/11/09 14:18:32;;;;;;;;;;;;;;;0.93;61.73;100386.69;4992420;28;20030;-61
2021/11/09 14:21:39;;;;;;;1.40;1.23;;;;;;;0.75;61.23;100398.91;5000880;28;19921;-61
2021/11/09 14:24:28;;;;;;;1.77;1.25;;;;;;;0.46;61.85;100341.13;5000228;28;20126;-60
2021/11/09 14:27:14;;;;;;;5.55;1.60;;;;;;;0.82;61.56;100390.59;5001973;28;20053;-61
2021/11/09 14:30:06;;;;;;;5.80;1.48;;;;;;;0.79;61.70;100401.56;5000298;28;20358;-62
2021/11/09 14:33:21;;;;;;;;;;;;;;;0.62;61.99;100416.34;4995865;28;20035;-60
2021/11/09 14:36:32;;;;;;;2.38;1.30;;;;;;;0.69;61.66;100402.13;4995067;28;19949;-60
2021/11/09 14:39:23;;;;;;;2.10;1.30;;;;;;;0.68;60.72;100398.72;4988632;28;20262;-61
2021/11/09 14:42:19;;;;;;;6.32;1.50;;;;;;;0.68;60.80;100426.75;5013140;28;20268;-62
2021/11/09 14:49:04;;;;;;;4.50;1.48;;;;;;;0.75;59.73;100432.88;4991504;28;20030;-62
2021/11/09 14:51:45;;;;;;;2.00;1.13;;;;;;;0.41;59.85;100383.41;5001262;28;20094;-60
2021/11/09 14:54:35;;;;;;;3.15;1.63;;;;;;;0.69;61.05;100448.84;5001528;28;20082;-61
2021/11/09 14:57:32;;;;;;;3.78;1.80;;;;;;;0.75;60.41;100447.31;5001561;28;20064;-62
2021/11/09 15:00:19;;;;;;;4.38;2.33;;;;;;;0.78;61.95;100461.00;5000984;28;20030;-61
2021/11/09 15:03:05;;;;;;;4.85;1.98;;;;;;;0.89;61.43;100456.25;5000560;28;20086;-61
2021/11/09 15:05:52;;;;;;;4.43;2.00;;;;;;;0.92;61.63;100465.69;5001065;28;20211;-62
2021/11/09 15:08:52;;;;;;;9.70;2.50;;;;;;;0.95;61.39;100463.22;5001501;28;20049;-60
2021/11/09 15:30:01;;;;;;;2.05;1.60;;;;;;;0.99;63.30;100488.84;5001198;28;20042;-61
2021/11/09 15:32:49;;;;;;;6.35;1.98;;;;;;;1.03;63.95;100489.84;4998730;28;20070;-63
2021/11/09 15:38:40;;;;;;;3.22;1.70;;;;;;;1.05;64.14;100505.19;5002102;28;20030;-62
2021/11/09 15:41:26;;;;;;;6.75;1.70;;;;;;;0.91;64.06;100517.50;5001188;28;20446;-62
2021/11/09 15:44:13;;;;;;;3.15;2.10;;;;;;;0.91;63.29;100514.94;4999384;28;20042;-62
2021/11/09 15:46:59;;;;;;;5.35;1.77;;;;;;;1.00;63.67;100510.16;4995764;28;20053;-62
2021/11/09 15:49:45;;;;;;;6.38;2.67;;;;;;;0.91;62.93;100518.34;5000463;28;20027;-61
2021/11/09 15:52:31;;;;;;;3.17;1.80;;;;;;;1.00;63.13;100528.84;5002800;28;20455;-61
2021/11/09 15:55:17;;;;;;;6.75;1.65;;;;;;;0.69;62.66;100543.16;4991933;28;20038;-61
2021/11/09 15:58:03;;;;;;;2.90;1.35;;;;;;;0.71;61.49;100547.47;5003814;28;20113;-61
2021/11/09 16:00:49;;;;;;;4.43;1.75;;;;;;;0.68;62.55;100546.56;5003700;28;20030;-61
2021/11/09 16:03:39;;;;;;;5.43;1.98;;;;;;;0.83;62.99;100542.78;5003422;28;20014;-60
2021/11/09 16:06:29;;;;;;;3.78;2.00;;;;;;;0.81;63.12;100545.28;4999177;28;20202;-59
2021/11/09 16:09:15;;;;;;;6.15;2.20;;;;;;;0.63;63.14;100542.13;4996968;28;20065;-61
2021/11/09 16:12:01;;;;;;;4.35;2.00;;;;;;;0.79;63.29;100554.53;5003690;28;20049;-60
2021/11/09 16:14:48;;;;;;;39.50;20.98;;;;;;;0.82;63.24;100564.81;4992499;28;20112;-60
2021/11/09 16:17:34;;;;;;;8.02;2.08;;;;;;;0.86;62.87;100559.00;5003390;28;20038;-62
2021/11/09 16:20:21;;;;;;;2.42;1.80;;;;;;;0.85;63.25;100567.47;4999059;28;20130;-62